Time;durP1;ratioP1;P1;durP2;ratioP2;P2;SDS_P1;SDS_P2;PMS_P1;PMS_P2;Temp;Humidity;BMP_temperature;BMP_pressure;BME280_temperature;BME280_humidity;BME280_pressure;Samples;Min_cycle;Max_cycle;Signal;HPM_P1;HPM_P2
2021/12/11 00:00:52;;;;;;;24.63;15.88;;;;;;;2.36;77.57;100424.94;7389538;19;20480;-56
2021/12/11 00:03:25;;;;;;;24.52;16.60;;;;;;;2.35;77.92;100424.09;7389098;19;20090;-59
2021/12/11 00:05:59;;;;;;;24.00;16.40;;;;;;;2.41;78.21;100431.75;7394383;19;20082;-52
2021/12/11 00:08:30;;;;;;;27.73;17.55;;;;;;;2.46;77.88;100438.56;7390278;19;20033;-57
2021/12/11 00:11:06;;;;;;;27.85;18.60;;;;;;;2.41;77.95;100439.50;7389015;19;20018;-57
2021/12/11 00:13:38;;;;;;;30.05;17.38;;;;;;;2.42;77.74;100446.38;7389936;19;20025;-57
2021/12/11 00:16:10;;;;;;;28.42;18.67;;;;;;;2.47;77.64;100455.81;7387914;19;20015;-56
2021/12/11 00:18:41;;;;;;;30.05;19.02;;;;;;;2.45;77.54;100463.59;7388406;19;20149;-55
2021/12/11 00:21:14;;;;;;;26.27;18.35;;;;;;;2.43;77.46;100467.91;7388783;19;20487;-56
2021/12/11 00:23:49;;;;;;;26.67;17.25;;;;;;;2.45;77.82;100468.75;7388705;19;20043;-54
2021/12/11 00:26:26;;;;;;;26.13;18.23;;;;;;;2.45;77.91;100467.88;7388526;19;20010;-54
2021/12/11 00:28:55;;;;;;;29.30;18.52;;;;;;;2.47;77.84;100479.91;7387411;19;20006;-55
2021/12/11 00:31:25;;;;;;;28.45;18.17;;;;;;;2.47;77.73;100494.59;7388075;19;20045;-56
2021/12/11 00:33:54;;;;;;;30.02;18.63;;;;;;;2.37;77.66;100486.13;7388213;19;20490;-55
2021/12/11 00:36:31;;;;;;;25.73;17.90;;;;;;;2.37;77.82;100501.63;7386991;19;20029;-56
2021/12/11 00:39:07;;;;;;;27.20;18.23;;;;;;;2.35;77.84;100498.22;7385534;19;20015;-54
2021/12/11 00:41:39;;;;;;;30.70;19.17;;;;;;;2.32;77.88;100503.44;7386718;19;20018;-56
2021/12/11 00:44:08;;;;;;;30.00;19.42;;;;;;;2.29;77.87;100513.81;7389308;19;20023;-56
2021/12/11 00:46:37;;;;;;;27.30;19.10;;;;;;;2.22;77.86;100518.22;7388234;19;20016;-54
2021/12/11 00:49:10;;;;;;;29.33;19.75;;;;;;;2.22;77.98;100518.22;7387302;19;20049;-55
2021/12/11 00:51:40;;;;;;;28.00;19.50;;;;;;;2.18;78.09;100530.34;7387916;19;20045;-56
2021/12/11 00:54:09;;;;;;;33.17;21.13;;;;;;;2.16;78.30;100528.66;7388818;19;20011;-56
2021/12/11 00:56:45;;;;;;;31.17;19.60;;;;;;;2.17;78.15;100538.13;7388340;19;20014;-56
2021/12/11 00:59:19;;;;;;;29.60;20.20;;;;;;;2.14;78.07;100546.78;7386820;19;20037;-55
2021/12/11 01:01:52;;;;;;;31.65;20.25;;;;;;;2.05;78.33;100547.75;7387083;19;20014;-56
2021/12/11 01:04:23;;;;;;;29.33;20.75;;;;;;;2.03;78.75;100548.66;7388702;19;20014;-56
2021/12/11 01:06:55;;;;;;;30.03;20.27;;;;;;;2.04;78.76;100561.56;7388389;19;20387;-53
2021/12/11 01:09:28;;;;;;;34.78;21.73;;;;;;;2.05;79.07;100568.44;7388496;19;20029;-52
2021/12/11 01:12:06;;;;;;;31.77;21.35;;;;;;;2.12;79.25;100586.44;7388758;19;20021;-53
2021/12/11 01:14:42;;;;;;;33.33;21.88;;;;;;;2.17;79.25;100588.09;7386991;19;20136;-52
2021/12/11 01:17:21;;;;;;;33.15;21.13;;;;;;;2.20;79.36;100580.28;7385593;19;20018;-52
2021/12/11 01:19:54;;;;;;;29.65;20.88;;;;;;;2.27;79.14;100593.16;7386575;19;20010;-54
2021/12/11 01:22:35;;;;;;;30.63;21.75;;;;;;;2.28;79.25;100600.00;7388186;19;20049;-56
2021/12/11 01:25:10;;;;;;;34.58;21.95;;;;;;;2.30;79.10;100604.28;7386370;19;20010;-54
2021/12/11 01:27:44;;;;;;;32.00;21.38;;;;;;;2.33;79.10;100608.56;7385771;19;20011;-56
2021/12/11 01:30:18;;;;;;;30.10;20.33;;;;;;;2.35;79.04;100610.25;7387612;19;20015;-52
2021/12/11 01:32:47;;;;;;;31.85;20.20;;;;;;;2.34;78.89;100611.13;7388538;19;20014;-56
2021/12/11 01:35:17;;;;;;;29.83;20.08;;;;;;;2.35;78.78;100623.19;7387933;19;20136;-56
2021/12/11 01:37:48;;;;;;;31.95;20.58;;;;;;;2.34;78.31;100630.97;7386292;19;20014;-52
2021/12/11 01:40:21;;;;;;;32.05;22.00;;;;;;;2.33;78.63;100632.69;7385864;19;20014;-52
2021/12/11 01:42:53;;;;;;;30.85;20.02;;;;;;;2.34;78.37;100642.16;7386196;19;20025;-54
2021/12/11 01:45:22;;;;;;;32.47;20.85;;;;;;;2.31;78.65;100641.34;7385721;19;20014;-54
2021/12/11 01:47:51;;;;;;;32.78;20.77;;;;;;;2.33;78.79;100644.75;7384684;19;20486;-57
2021/12/11 01:50:29;;;;;;;31.95;21.83;;;;;;;2.33;78.92;100653.38;7388781;19;20395;-56
2021/12/11 01:53:05;;;;;;;31.83;20.73;;;;;;;2.31;78.39;100662.88;7395733;19;20026;-55
2021/12/11 01:55:38;;;;;;;28.80;19.63;;;;;;;2.23;78.30;100669.88;7392837;19;20017;-55
2021/12/11 01:58:14;;;;;;;31.13;20.98;;;;;;;2.15;78.42;100669.97;7391619;19;20467;-55
2021/12/11 02:00:47;;;;;;;26.33;19.35;;;;;;;2.09;78.50;100680.38;7391504;19;20018;-54
2021/12/11 02:03:18;;;;;;;31.27;20.65;;;;;;;2.01;78.35;100685.63;7392233;19;20074;-52
2021/12/11 02:05:47;;;;;;;30.80;19.83;;;;;;;1.98;78.80;100690.00;7390415;19;20018;-52
2021/12/11 02:08:18;;;;;;;34.00;21.95;;;;;;;1.97;78.97;100690.84;7392101;19;20472;-53
2021/12/11 02:10:53;;;;;;;30.47;20.00;;;;;;;2.01;79.13;100695.97;7392206;19;20018;-51
2021/12/11 02:13:38;;;;;;;33.25;20.70;;;;;;;2.05;79.21;100701.97;7394086;19;20010;-57
2021/12/11 02:16:15;;;;;;;31.95;21.45;;;;;;;2.06;79.07;100698.50;7391068;19;20025;-56
2021/12/11 02:18:46;;;;;;;34.33;21.35;;;;;;;2.04;79.15;100706.28;7393471;19;20340;-52
2021/12/11 02:21:18;;;;;;;30.33;20.77;;;;;;;2.05;79.01;100713.16;7394679;19;20026;-55
2021/12/11 02:23:57;;;;;;;31.63;22.05;;;;;;;2.07;78.94;100713.16;7391983;19;20077;-57
2021/12/11 02:26:28;;;;;;;31.10;21.70;;;;;;;2.06;78.95;100721.75;7392674;19;20053;-56
2021/12/11 02:29:03;;;;;;;29.75;20.73;;;;;;;2.06;79.23;100716.59;7391869;19;20479;-55
2021/12/11 02:31:37;;;;;;;34.90;23.35;;;;;;;2.07;79.13;100721.75;7391163;19;20022;-52
2021/12/11 02:34:12;;;;;;;31.25;21.10;;;;;;;2.11;78.90;100724.28;7393204;19;20014;-51
2021/12/11 02:36:47;;;;;;;28.73;20.17;;;;;;;2.12;79.08;100736.34;7393539;19;20025;-52
2021/12/11 02:39:25;;;;;;;30.65;21.15;;;;;;;2.12;78.94;100744.97;7392564;19;20014;-52
2021/12/11 02:42:00;;;;;;;27.55;20.13;;;;;;;2.12;78.94;100744.09;7393467;19;20336;-57
2021/12/11 02:44:34;;;;;;;32.53;21.58;;;;;;;2.14;79.11;100747.53;7396051;19;20023;-56
2021/12/11 02:47:11;;;;;;;35.30;22.08;;;;;;;2.14;78.74;100744.97;7391555;19;20014;-57
2021/12/11 02:49:43;;;;;;;31.80;20.33;;;;;;;2.15;78.60;100749.22;7389423;19;20021;-55
2021/12/11 02:52:20;;;;;;;32.08;21.08;;;;;;;2.12;78.99;100746.69;7389871;19;20428;-58
2021/12/11 02:54:59;;;;;;;35.00;21.27;;;;;;;2.12;78.83;100752.72;7391627;19;20357;-56
2021/12/11 02:57:35;;;;;;;29.05;19.70;;;;;;;2.13;78.99;100751.84;7391703;19;20023;-57
2021/12/11 03:00:12;;;;;;;32.58;21.10;;;;;;;2.10;79.13;100759.63;7390764;19;20014;-57
2021/12/11 03:02:47;;;;;;;31.45;20.58;;;;;;;2.10;79.55;100764.78;7389574;19;20018;-56
2021/12/11 03:05:19;;;;;;;30.77;22.30;;;;;;;2.07;79.85;100767.41;7391398;19;20470;-59
2021/12/11 03:07:51;;;;;;;26.05;19.55;;;;;;;2.11;79.90;100773.41;7390985;19;20473;-56
2021/12/11 03:10:26;;;;;;;28.85;20.15;;;;;;;2.12;79.47;100775.13;7390371;19;20101;-58
2021/12/11 03:12:56;;;;;;;29.85;20.17;;;;;;;2.12;79.64;100778.56;7390811;19;20014;-57
2021/12/11 03:15:25;;;;;;;30.73;21.45;;;;;;;2.13;79.72;100788.03;7389398;19;20014;-57
2021/12/11 03:17:55;;;;;;;39.88;24.33;;;;;;;2.14;79.59;100783.72;7390375;19;20066;-57
2021/12/11 03:20:26;;;;;;;38.38;24.17;;;;;;;2.12;79.31;100796.66;7390759;19;20029;-56
2021/12/11 03:22:55;;;;;;;34.55;21.83;;;;;;;2.11;79.21;100794.06;7391694;19;20018;-58
2021/12/11 03:25:30;;;;;;;34.58;22.13;;;;;;;2.08;78.98;100798.41;7390306;19;20021;-56
2021/12/11 03:28:00;;;;;;;33.55;21.92;;;;;;;2.03;78.89;100801.91;7389830;19;20083;-56
2021/12/11 03:30:31;;;;;;;33.63;21.23;;;;;;;2.03;79.12;100812.25;7390782;19;20019;-54
2021/12/11 03:33:05;;;;;;;30.45;21.15;;;;;;;2.02;79.13;100813.09;7390836;19;20105;-58
2021/12/11 03:35:34;;;;;;;34.08;22.20;;;;;;;1.98;79.39;100811.44;7390752;19;20011;-59
2021/12/11 03:38:04;;;;;;;33.67;22.25;;;;;;;1.97;79.46;100809.72;7389519;19;20017;-57
2021/12/11 03:40:36;;;;;;;32.08;22.75;;;;;;;2.01;79.93;100803.66;7388302;19;20028;-60
2021/12/11 03:43:09;;;;;;;35.15;23.13;;;;;;;2.03;79.79;100809.66;7388444;19;20018;-59
2021/12/11 03:45:41;;;;;;;36.20;23.15;;;;;;;2.04;80.10;100816.56;7390054;19;20015;-56
2021/12/11 03:48:14;;;;;;;31.50;21.90;;;;;;;2.07;79.98;100817.38;7389422;19;20702;-56
2021/12/11 03:50:44;;;;;;;29.88;20.60;;;;;;;2.09;79.83;100814.75;7391054;19;20481;-57
2021/12/11 03:53:14;;;;;;;32.03;21.33;;;;;;;2.08;79.26;100818.25;7389939;19;20015;-59
2021/12/11 03:55:49;;;;;;;34.35;21.58;;;;;;;2.09;79.25;100825.09;7388203;19;20353;-58
2021/12/11 03:58:18;;;;;;;35.38;22.35;;;;;;;2.08;79.46;100826.84;7389775;19;20378;-57
2021/12/11 04:00:51;;;;;;;32.53;22.75;;;;;;;2.06;79.94;100827.72;7387545;19;20474;-57
2021/12/11 04:03:29;;;;;;;29.48;21.05;;;;;;;2.08;79.92;100829.44;7390111;19;20550;-57
2021/12/11 04:05:59;;;;;;;28.73;20.25;;;;;;;2.05;79.39;100828.63;7389622;19;20344;-60
2021/12/11 04:08:34;;;;;;;30.50;21.77;;;;;;;1.98;79.65;100837.28;7388889;19;20023;-59
2021/12/11 04:11:06;;;;;;;33.47;22.00;;;;;;;1.80;79.29;100843.44;7389503;19;20073;-58
2021/12/11 04:13:34;;;;;;;31.73;22.23;;;;;;;1.64;80.28;100853.88;7387940;19;20472;-58
2021/12/11 04:16:04;;;;;;;32.78;21.90;;;;;;;1.47;80.79;100853.16;7388466;19;20029;-62
2021/12/11 04:18:33;;;;;;;31.98;21.75;;;;;;;1.42;81.68;100867.81;7389685;19;20024;-60
2021/12/11 04:21:02;;;;;;;30.67;21.73;;;;;;;1.39;82.20;100860.94;7388584;19;20020;-61
2021/12/11 04:23:31;;;;;;;32.47;21.02;;;;;;;1.44;82.40;100866.09;7389102;19;20025;-62
2021/12/11 04:26:01;;;;;;;30.40;21.55;;;;;;;1.46;82.29;100861.75;7388437;19;20094;-61
2021/12/11 04:28:35;;;;;;;32.80;21.25;;;;;;;1.51;82.14;100870.34;7387201;19;20024;-62
2021/12/11 04:31:08;;;;;;;32.88;21.77;;;;;;;1.57;82.03;100872.88;7388678;19;20123;-61
2021/12/11 04:33:41;;;;;;;32.38;22.15;;;;;;;1.61;81.89;100878.91;7389118;19;20351;-61
2021/12/11 04:36:14;;;;;;;30.88;20.70;;;;;;;1.67;81.65;100882.28;7388521;19;20019;-60
2021/12/11 04:38:44;;;;;;;31.33;21.77;;;;;;;1.66;81.19;100890.91;7389040;19;20022;-60
2021/12/11 04:41:18;;;;;;;29.42;20.67;;;;;;;1.63;81.36;100883.16;7387531;19;20021;-59
2021/12/11 04:43:53;;;;;;;32.75;21.20;;;;;;;1.68;81.66;100886.59;7387041;19;20010;-59
2021/12/11 04:46:23;;;;;;;32.20;22.02;;;;;;;1.71;81.62;100883.97;7387321;19;20011;-61
2021/12/11 04:49:03;;;;;;;34.03;22.52;;;;;;;1.73;81.79;100886.53;7387357;19;20015;-58
2021/12/11 04:51:43;;;;;;;34.50;22.08;;;;;;;1.80;82.01;100901.13;7387957;19;20336;-60
2021/12/11 04:54:27;;;;;;;35.95;22.23;;;;;;;1.88;81.66;100911.44;7387962;19;20496;-58
2021/12/11 04:57:22;;;;;;;34.08;22.65;;;;;;;1.89;81.85;100915.72;7386580;19;20053;-61
2021/12/11 05:00:07;;;;;;;36.20;22.15;;;;;;;1.94;81.45;100921.72;7388267;19;20014;-60
2021/12/11 05:03:23;;;;;;;35.15;22.63;;;;;;;1.95;81.61;100918.28;7388283;19;20021;-56
2021/12/11 05:06:03;;;;;;;37.15;22.83;;;;;;;2.01;81.98;100919.97;7386810;19;20458;-61
2021/12/11 05:11:15;;;;;;;37.30;22.27;;;;;;;2.10;81.68;100926.78;7385875;19;20547;-55
2021/12/11 05:13:45;;;;;;;36.80;22.35;;;;;;;2.10;81.94;100929.38;7387822;19;20015;-54
2021/12/11 05:16:18;;;;;;;41.25;25.98;;;;;;;2.14;81.96;100936.25;7386690;19;20447;-54
2021/12/11 05:18:49;;;;;;;44.10;27.00;;;;;;;2.11;81.89;100941.41;7387123;19;20006;-59
2021/12/11 05:21:20;;;;;;;39.30;24.30;;;;;;;2.04;82.15;100945.78;7386323;19;20017;-58
2021/12/11 05:23:51;;;;;;;38.23;23.77;;;;;;;2.01;82.46;100954.41;7387343;19;20013;-54
2021/12/11 05:26:21;;;;;;;39.00;23.77;;;;;;;2.02;82.62;100952.66;7390528;19;20169;-56
2021/12/11 05:28:51;;;;;;;36.92;24.00;;;;;;;2.06;82.76;100959.53;7394412;19;20025;-55
2021/12/11 05:31:23;;;;;;;39.90;24.15;;;;;;;2.10;82.87;100966.41;7392980;19;20033;-57
2021/12/11 05:33:53;;;;;;;40.05;24.60;;;;;;;2.09;82.73;100959.50;7395488;19;20621;-55
2021/12/11 05:36:23;;;;;;;38.13;24.30;;;;;;;2.07;82.77;100956.94;7394281;19;20356;-55
2021/12/11 05:38:52;;;;;;;42.10;26.00;;;;;;;2.05;82.97;100958.69;7394803;19;20018;-56
2021/12/11 05:41:23;;;;;;;38.55;24.60;;;;;;;2.06;83.10;100964.72;7393032;19;20024;-55
2021/12/11 05:43:53;;;;;;;36.53;24.20;;;;;;;2.04;82.81;100969.03;7394765;19;20028;-59
2021/12/11 05:46:25;;;;;;;41.10;24.92;;;;;;;2.01;83.05;100969.91;7394478;19;20152;-60
2021/12/11 05:48:55;;;;;;;43.00;25.83;;;;;;;2.00;83.40;100973.34;7394980;19;20018;-57
2021/12/11 05:51:25;;;;;;;39.85;26.35;;;;;;;2.04;83.32;100974.22;7394037;19;20014;-55
2021/12/11 05:54:00;;;;;;;37.60;25.92;;;;;;;2.05;83.52;100973.34;7394828;19;20075;-58
2021/12/11 05:56:33;;;;;;;39.65;25.75;;;;;;;2.06;83.56;100980.22;7394116;19;20018;-58
2021/12/11 05:59:02;;;;;;;39.35;25.55;;;;;;;2.10;83.48;100986.25;7394969;19;20014;-58
2021/12/11 06:01:40;;;;;;;39.97;25.80;;;;;;;2.16;83.55;100984.44;7392328;19;20033;-56
2021/12/11 06:04:11;;;;;;;41.22;25.42;;;;;;;2.19;83.40;100986.16;7394411;19;20019;-58
2021/12/11 06:06:41;;;;;;;66.50;55.78;;;;;;;2.18;83.20;100998.25;7393083;19;20010;-56
2021/12/11 06:09:12;;;;;;;40.97;26.63;;;;;;;2.19;83.47;100993.91;7393051;19;20037;-57
2021/12/11 06:11:43;;;;;;;43.50;27.08;;;;;;;2.24;83.45;100994.75;7392448;19;20018;-58
2021/12/11 06:14:13;;;;;;;41.30;25.70;;;;;;;2.26;83.64;101000.75;7393588;19;20018;-60
2021/12/11 06:16:44;;;;;;;42.22;25.98;;;;;;;2.28;83.68;101011.09;7392640;19;20014;-58
2021/12/11 06:19:13;;;;;;;41.35;26.08;;;;;;;2.29;83.53;101013.66;7394369;19;20550;-58
2021/12/11 06:21:44;;;;;;;47.97;26.85;;;;;;;2.22;83.65;101022.31;7392281;19;20019;-54
2021/12/11 06:24:13;;;;;;;44.15;28.25;;;;;;;2.16;84.42;101030.97;7393889;19;20018;-56
2021/12/11 06:26:43;;;;;;;43.80;27.63;;;;;;;2.13;84.76;101030.16;7392981;19;20041;-59
2021/12/11 06:29:12;;;;;;;48.22;28.48;;;;;;;2.08;85.32;101032.78;7393320;19;20104;-57
2021/12/11 06:31:44;;;;;;;49.10;30.20;;;;;;;2.07;86.03;101029.31;7390697;19;20052;-58
2021/12/11 06:34:14;;;;;;;46.85;29.98;;;;;;;2.09;86.22;101039.63;7392783;19;20041;-59
2021/12/11 06:36:44;;;;;;;49.83;30.95;;;;;;;2.08;86.75;101051.72;7390661;19;20134;-59
2021/12/11 06:39:16;;;;;;;49.42;31.63;;;;;;;2.13;86.74;101056.00;7392384;19;20024;-58
2021/12/11 06:41:50;;;;;;;47.53;30.15;;;;;;;2.14;86.80;101047.38;7390276;19;20475;-58
2021/12/11 06:44:20;;;;;;;47.67;31.60;;;;;;;2.15;86.73;101055.13;7393044;19;20360;-54
2021/12/11 06:46:54;;;;;;;45.10;30.48;;;;;;;2.13;86.78;101063.75;7392463;19;20014;-58
2021/12/11 06:49:23;;;;;;;52.55;30.40;;;;;;;2.16;86.90;101068.91;7392015;19;20014;-56
2021/12/11 06:51:53;;;;;;;50.60;31.20;;;;;;;2.13;86.98;101066.34;7390441;19;20356;-58
2021/12/11 06:54:22;;;;;;;51.83;32.53;;;;;;;2.13;87.21;101074.09;7392431;19;20026;-57
2021/12/11 06:56:51;;;;;;;50.08;30.92;;;;;;;2.16;87.67;101080.09;7392035;19;20014;-58
2021/12/11 06:59:20;;;;;;;45.63;28.83;;;;;;;2.18;87.38;101086.13;7392086;19;20014;-53
2021/12/11 07:01:53;;;;;;;48.20;30.63;;;;;;;2.21;87.19;101087.84;7392504;19;20029;-58
2021/12/11 07:04:21;;;;;;;46.60;30.67;;;;;;;2.20;87.20;101088.72;7394519;19;20024;-56
2021/12/11 07:06:54;;;;;;;53.53;32.05;;;;;;;2.19;87.31;101099.91;7393684;19;20006;-57
2021/12/11 07:09:26;;;;;;;48.72;30.42;;;;;;;2.18;87.48;101096.47;7391208;19;20745;-55
2021/12/11 07:11:57;;;;;;;50.03;31.30;;;;;;;2.20;87.63;101101.63;7392778;19;20022;-58
2021/12/11 07:14:30;;;;;;;51.90;31.85;;;;;;;2.21;87.56;101098.19;7391584;19;20766;-56
2021/12/11 07:17:02;;;;;;;50.80;31.17;;;;;;;2.19;87.68;101099.91;7393637;19;20015;-57
2021/12/11 07:19:31;;;;;;;51.38;32.40;;;;;;;2.22;87.80;101107.66;7390321;19;20456;-55
2021/12/11 07:22:00;;;;;;;48.28;31.15;;;;;;;2.19;87.33;101113.72;7390128;19;20343;-57
2021/12/11 07:24:35;;;;;;;50.28;31.60;;;;;;;2.19;87.43;101123.19;7391943;19;20014;-57
2021/12/11 07:27:07;;;;;;;49.00;32.05;;;;;;;2.18;87.80;101124.91;7389220;19;20014;-56
2021/12/11 07:29:36;;;;;;;51.85;31.35;;;;;;;2.22;87.71;101126.63;7391073;19;20448;-57
2021/12/11 07:32:11;;;;;;;46.72;29.88;;;;;;;2.25;87.57;101130.94;7389564;19;20360;-59
2021/12/11 07:34:40;;;;;;;49.50;30.77;;;;;;;2.25;87.40;101136.09;7389581;19;20019;-56
2021/12/11 07:37:11;;;;;;;49.33;29.70;;;;;;;2.25;87.58;101143.84;7390811;19;20497;-54
2021/12/11 07:39:40;;;;;;;54.38;34.13;;;;;;;2.22;87.76;101141.25;7391654;19;20049;-59
2021/12/11 07:42:09;;;;;;;51.15;32.17;;;;;;;2.24;87.86;101150.72;7389328;19;20026;-53
2021/12/11 07:44:38;;;;;;;49.75;31.73;;;;;;;2.25;87.79;101149.88;7390827;19;20364;-55
2021/12/11 07:47:10;;;;;;;49.83;31.50;;;;;;;2.26;87.82;101158.47;7388543;19;20028;-58
2021/12/11 07:49:39;;;;;;;57.05;33.65;;;;;;;2.25;87.82;101154.19;7390037;19;20010;-56
2021/12/11 07:52:09;;;;;;;53.15;32.53;;;;;;;2.21;87.55;101155.91;7388604;19;20021;-55
2021/12/11 07:54:38;;;;;;;50.90;32.15;;;;;;;2.18;87.76;101153.34;7391221;19;20025;-58
2021/12/11 07:57:07;;;;;;;52.60;32.70;;;;;;;2.17;87.84;101161.13;7389076;19;20014;-56
2021/12/11 07:59:36;;;;;;;54.33;34.75;;;;;;;2.17;87.85;101169.72;7389627;19;20019;-58
2021/12/11 08:02:05;;;;;;;88.57;54.70;;;;;;;2.15;87.86;101186.09;7389082;19;20480;-57
2021/12/11 08:04:37;;;;;;;196.35;119.97;;;;;;;2.15;87.81;101189.56;7390228;19;20363;-59
2021/12/11 08:07:06;;;;;;;118.20;78.40;;;;;;;2.16;87.88;101191.25;7389491;19;20015;-60
2021/12/11 08:09:35;;;;;;;117.18;76.18;;;;;;;2.15;87.97;101199.03;7389227;19;20393;-60
2021/12/11 08:12:04;;;;;;;86.32;56.22;;;;;;;2.15;88.03;101199.03;7389034;19;20021;-59
2021/12/11 08:14:33;;;;;;;72.45;50.70;;;;;;;2.15;88.21;101202.47;7389397;19;20114;-59
2021/12/11 08:17:05;;;;;;;74.90;52.83;;;;;;;2.17;88.36;101210.22;7388525;19;20021;-59
2021/12/11 08:19:37;;;;;;;63.83;44.17;;;;;;;2.19;88.27;101211.97;7389428;19;20066;-58
2021/12/11 08:22:09;;;;;;;58.73;37.67;;;;;;;2.19;88.38;101224.88;7388601;19;20069;-57
2021/12/11 08:24:39;;;;;;;54.10;35.38;;;;;;;2.21;88.74;101228.31;7389890;19;20029;-57
2021/12/11 08:27:13;;;;;;;64.60;37.90;;;;;;;2.29;88.92;101230.00;7388836;19;20018;-59
2021/12/11 08:29:45;;;;;;;55.55;35.45;;;;;;;2.34;88.73;101247.22;7387601;19;20405;-59
2021/12/11 08:32:15;;;;;;;52.33;33.47;;;;;;;2.36;88.56;101237.72;7388054;19;20018;-58
2021/12/11 08:34:46;;;;;;;52.88;33.08;;;;;;;2.36;88.67;101242.91;7389104;19;20020;-59
2021/12/11 08:37:18;;;;;;;56.37;35.00;;;;;;;2.38;88.67;101246.34;7388840;19;20133;-56
2021/12/11 08:39:47;;;;;;;54.35;32.88;;;;;;;2.42;88.91;101242.03;7389451;19;20019;-58
2021/12/11 08:42:19;;;;;;;60.17;34.75;;;;;;;2.47;88.71;101247.19;7390852;19;20354;-59
2021/12/11 08:44:57;;;;;;;57.80;34.67;;;;;;;2.49;88.66;101254.06;7397000;19;20019;-56
2021/12/11 08:47:27;;;;;;;56.90;34.03;;;;;;;2.50;88.26;101260.13;7390283;19;20113;-54
2021/12/11 08:50:00;;;;;;;57.28;34.70;;;;;;;2.52;88.45;101260.94;7389989;19;20014;-52
2021/12/11 08:52:30;;;;;;;;;;;;;;;2.54;88.44;101259.25;7390636;19;20045;-54
2021/12/11 08:55:01;;;;;;;57.20;34.70;;;;;;;2.54;88.43;101267.00;7389472;19;20241;-52
2021/12/11 08:57:33;;;;;;;60.20;35.75;;;;;;;2.53;88.39;101273.88;7389517;19;20325;-55
2021/12/11 09:00:04;;;;;;;;;;;;;;;2.54;88.48;101274.75;7389937;19;20018;-54
2021/12/11 09:02:40;;;;;;;62.67;36.05;;;;;;;2.54;88.76;101277.34;7389738;19;20322;-53
2021/12/11 09:05:15;;;;;;;56.88;34.63;;;;;;;2.59;88.70;101273.00;7389240;19;20018;-55
2021/12/11 09:07:49;;;;;;;62.42;36.65;;;;;;;2.62;88.98;101275.56;7390552;19;20571;-57
2021/12/11 09:10:22;;;;;;;61.05;36.80;;;;;;;2.67;89.03;101275.56;7388779;19;20017;-52
2021/12/11 09:12:55;;;;;;;62.40;36.13;;;;;;;2.70;89.04;101272.97;7388958;19;20014;-52
2021/12/11 09:15:26;;;;;;;;;;;;;;;2.73;88.95;101281.56;7389588;19;20502;-52
2021/12/11 09:17:59;;;;;;;58.08;35.17;;;;;;;2.74;88.93;101285.03;7389678;19;19930;-52
2021/12/11 09:20:37;;;;;;;61.22;36.80;;;;;;;2.75;88.90;101300.53;7387202;19;20102;-56
2021/12/11 09:23:12;;;;;;;57.38;36.38;;;;;;;2.74;88.72;101311.75;7387332;19;20006;-58
2021/12/11 09:25:49;;;;;;;58.25;35.90;;;;;;;2.81;88.72;101311.72;7387106;19;20017;-56
2021/12/11 09:28:23;;;;;;;61.30;38.22;;;;;;;2.84;88.93;101310.00;7387885;19;20014;-54
2021/12/11 09:30:58;;;;;;;61.30;35.72;;;;;;;2.84;88.83;101320.34;7390212;19;20036;-55
2021/12/11 09:33:30;;;;;;;64.43;37.83;;;;;;;2.87;88.80;101322.91;7390919;19;20025;-52
2021/12/11 09:36:08;;;;;;;59.78;35.80;;;;;;;2.90;89.03;101333.25;7386442;19;20014;-56
2021/12/11 09:38:40;;;;;;;59.47;36.67;;;;;;;2.92;89.04;101339.31;7386667;19;20088;-58
2021/12/11 09:41:24;;;;;;;64.95;39.15;;;;;;;2.98;89.17;101341.00;7386503;19;20017;-58
2021/12/11 09:44:01;;;;;;;58.88;36.70;;;;;;;3.07;89.27;101359.06;7389127;19;20014;-56
2021/12/11 09:46:33;;;;;;;58.42;35.03;;;;;;;3.10;89.16;101361.63;7385836;19;20103;-58
2021/12/11 09:49:03;;;;;;;59.97;37.10;;;;;;;3.11;89.07;101365.97;7388601;19;20011;-58
2021/12/11 09:51:38;;;;;;;64.53;37.35;;;;;;;3.17;89.18;101374.59;7387618;19;20483;-59
2021/12/11 09:54:11;;;;;;;60.45;36.88;;;;;;;3.21;89.02;101377.13;7386642;19;20022;-58
2021/12/11 09:56:45;;;;;;;55.65;34.17;;;;;;;3.25;89.04;101375.38;7387655;19;20086;-54
2021/12/11 09:59:21;;;;;;;62.22;35.80;;;;;;;3.29;89.10;101371.91;7386723;19;20019;-58
2021/12/11 10:01:57;;;;;;;59.88;35.58;;;;;;;3.33;89.18;101373.63;7387519;19;20074;-54
2021/12/11 10:04:31;;;;;;;60.22;37.30;;;;;;;3.37;89.16;101387.44;7389762;19;20344;-55
2021/12/11 10:07:25;;;;;;;59.22;37.80;;;;;;;3.43;89.06;101397.75;7386629;19;20417;-54
2021/12/11 10:09:57;;;;;;;58.90;35.38;;;;;;;3.41;88.96;101396.88;7387113;19;20030;-59
2021/12/11 10:12:29;;;;;;;65.30;37.23;;;;;;;3.40;88.88;101395.19;7388210;19;20011;-58
2021/12/11 10:15:05;;;;;;;60.80;36.53;;;;;;;3.34;88.88;101402.97;7395300;19;20263;-56
2021/12/11 10:17:39;;;;;;;67.75;38.97;;;;;;;3.32;89.18;101409.91;7395406;19;20449;-58
2021/12/11 10:20:12;;;;;;;64.05;36.55;;;;;;;3.29;89.14;101414.22;7392060;19;20028;-58
2021/12/11 10:22:42;;;;;;;67.65;38.13;;;;;;;3.35;89.56;101418.50;7393217;19;20017;-55
2021/12/11 10:25:18;;;;;;;64.00;38.22;;;;;;;3.40;89.45;101416.75;7393816;19;20025;-59
2021/12/11 10:27:47;;;;;;;65.95;37.95;;;;;;;3.43;89.44;101421.91;7395156;19;20015;-56
2021/12/11 10:30:24;;;;;;;65.63;38.67;;;;;;;3.51;89.44;101433.97;7393612;19;20025;-55
2021/12/11 10:32:53;;;;;;;72.25;38.78;;;;;;;3.58;89.31;101433.94;7392323;19;20489;-57
2021/12/11 10:35:28;;;;;;;66.20;38.70;;;;;;;3.63;89.38;101432.19;7394491;19;20018;-56
2021/12/11 10:37:58;;;;;;;65.00;37.88;;;;;;;3.70;89.11;101430.41;7394153;19;20504;-58
2021/12/11 10:40:31;;;;;;;64.97;37.80;;;;;;;3.74;89.19;101432.13;7394183;19;20032;-58
2021/12/11 10:43:01;;;;;;;;;;;;;;;3.77;88.98;101431.25;7392357;19;20010;-57
2021/12/11 10:45:33;;;;;;;63.33;36.20;;;;;;;3.79;89.01;101451.09;7394868;19;19963;-57
2021/12/11 10:48:04;;;;;;;66.05;37.30;;;;;;;3.77;89.06;101444.22;7393416;19;20022;-57
2021/12/11 10:50:37;;;;;;;67.90;37.78;;;;;;;3.78;88.92;101444.19;7392554;19;20024;-58
2021/12/11 10:53:08;;;;;;;66.88;36.92;;;;;;;3.77;88.79;101444.22;7391819;19;20015;-55
2021/12/11 10:55:39;;;;;;;69.95;37.72;;;;;;;3.79;89.14;101442.47;7391123;19;20014;-58
2021/12/11 10:58:13;;;;;;;66.85;36.97;;;;;;;3.84;89.07;101447.59;7391029;19;20011;-57
2021/12/11 11:00:48;;;;;;;69.75;39.53;;;;;;;3.87;89.16;101453.66;7393197;19;20475;-58
2021/12/11 11:03:18;;;;;;;63.65;35.67;;;;;;;3.90;89.00;101452.78;7392413;19;20011;-53
2021/12/11 11:05:48;;;;;;;69.13;36.97;;;;;;;3.92;89.22;101461.41;7392927;19;20479;-59
2021/12/11 11:08:17;;;;;;;69.70;38.33;;;;;;;3.94;89.26;101464.81;7390908;19;20011;-59
2021/12/11 11:10:53;;;;;;;61.33;34.47;;;;;;;3.94;89.31;101468.28;7390963;19;20324;-57
2021/12/11 11:13:24;;;;;;;58.33;33.22;;;;;;;3.92;89.45;101471.75;7390892;19;20372;-56
2021/12/11 11:15:57;;;;;;;54.88;32.78;;;;;;;3.92;89.28;101476.94;7392218;19;20010;-58
2021/12/11 11:18:28;;;;;;;57.47;34.33;;;;;;;3.88;89.36;101485.63;7391456;19;20010;-56
2021/12/11 11:21:00;;;;;;;60.67;34.95;;;;;;;3.85;89.25;101483.03;7392858;19;20525;-58
2021/12/11 11:23:29;;;;;;;60.63;33.95;;;;;;;3.87;89.48;101492.53;7390288;19;20405;-56
2021/12/11 11:26:01;;;;;;;77.70;36.70;;;;;;;3.90;89.51;101489.06;7390118;19;20022;-57
2021/12/11 11:28:34;;;;;;;57.78;32.97;;;;;;;3.92;89.62;101498.53;7390910;19;20019;-54
2021/12/11 11:31:09;;;;;;;55.92;32.13;;;;;;;3.95;89.60;101503.75;7390914;19;20026;-58
2021/12/11 11:33:38;;;;;;;56.63;31.92;;;;;;;3.98;89.58;101508.91;7392446;19;20026;-56
2021/12/11 11:36:10;;;;;;;59.67;32.45;;;;;;;4.02;89.65;101509.72;7390134;19;20356;-53
2021/12/11 11:38:43;;;;;;;64.03;34.73;;;;;;;4.07;89.85;101520.06;7391357;19;20045;-58
2021/12/11 11:41:17;;;;;;;58.90;34.05;;;;;;;4.08;89.63;101525.25;7389911;19;20017;-54
2021/12/11 11:43:46;;;;;;;60.72;32.60;;;;;;;4.06;89.61;101531.34;7390284;19;20020;-53
2021/12/11 11:46:19;;;;;;;55.08;31.92;;;;;;;3.99;89.42;101528.75;7389545;19;20039;-57